<?xml version="1.0" encoding="UTF-8" standalone="no" ?>
<gpx xmlns="http://www.topografix.com/GPX/1/1" xmlns:xsi="http://www.w3.org/2001/XMLSchema-instance" xsi:schemaLocation="http://www.topografix.com/GPX/1/1 http://www.topografix.com/GPX/1/1/gpx.xsd" version="1.1" creator="VisuGPX - https://www.visugpx.com">
  <metadata>
    <name>tour france</name>
  </metadata>
  <trk>
    <name><![CDATA[SES_5]]></name>
    <extensions>
      <line xmlns="http://www.topografix.com/GPX/gpx_style/0/2">
        <color>FFFF00</color>
        <width>4</width>
      </line>
    </extensions>
    <trkseg>
      <trkpt lat="44.44533" lon="1.82892">
        <ele>333.494</ele>
        <time>2016-09-15T08:18:03Z</time>
      </trkpt>
      <trkpt lat="44.44491" lon="1.82854">
        <ele>335.153</ele>
        <time>2016-09-15T08:18:23Z</time>
      </trkpt>
      <trkpt lat="44.44425" lon="1.82841">
        <ele>336.482</ele>
        <time>2016-09-15T08:18:43Z</time>
      </trkpt>
      <trkpt lat="44.4435" lon="1.82847">
        <ele>338.038</ele>
        <time>2016-09-15T08:19:03Z</time>
      </trkpt>
      <trkpt lat="44.44227" lon="1.82901">
        <ele>345.169</ele>
        <time>2016-09-15T08:19:23Z</time>
      </trkpt>
      <trkpt lat="44.44115" lon="1.82993">
        <ele>350.612</ele>
        <time>2016-09-15T08:19:43Z</time>
      </trkpt>
      <trkpt lat="44.44048" lon="1.83071">
        <ele>353.471</ele>
        <time>2016-09-15T08:20:03Z</time>
      </trkpt>
      <trkpt lat="44.4395" lon="1.83287">
        <ele>350.779</ele>
        <time>2016-09-15T08:20:23Z</time>
      </trkpt>
      <trkpt lat="44.43812" lon="1.83384">
        <ele>357.305</ele>
        <time>2016-09-15T08:20:43Z</time>
      </trkpt>
      <trkpt lat="44.43718" lon="1.8347">
        <ele>361.025</ele>
        <time>2016-09-15T08:21:03Z</time>
      </trkpt>
      <trkpt lat="44.4364" lon="1.83504">
        <ele>363.508</ele>
        <time>2016-09-15T08:21:23Z</time>
      </trkpt>
      <trkpt lat="44.43528" lon="1.83528">
        <ele>361.193</ele>
        <time>2016-09-15T08:21:43Z</time>
      </trkpt>
      <trkpt lat="44.43348" lon="1.83485">
        <ele>358.63</ele>
        <time>2019-03-30T13:27:25Z</time>
      </trkpt>
      <trkpt lat="44.431" lon="1.83495">
        <ele>370.549</ele>
        <time>2019-03-30T13:27:45Z</time>
      </trkpt>
      <trkpt lat="44.42934" lon="1.83474">
        <ele>374.278</ele>
        <time>2016-09-15T08:22:23Z</time>
      </trkpt>
      <trkpt lat="44.42782" lon="1.83399">
        <ele>363.894</ele>
        <time>2016-09-15T08:22:43Z</time>
      </trkpt>
      <trkpt lat="44.42666" lon="1.83399">
        <ele>359.085</ele>
        <time>2016-09-15T08:23:03Z</time>
      </trkpt>
      <trkpt lat="44.42603" lon="1.83309">
        <ele>347.068</ele>
        <time>2016-09-15T08:23:23Z</time>
      </trkpt>
      <trkpt lat="44.42542" lon="1.83287">
        <ele>344.857</ele>
        <time>2016-09-15T08:23:43Z</time>
      </trkpt>
      <trkpt lat="44.42457" lon="1.83302">
        <ele>344.123</ele>
        <time>2016-09-15T08:24:03Z</time>
      </trkpt>
      <trkpt lat="44.42407" lon="1.8338">
        <ele>341.683</ele>
        <time>2016-09-15T08:24:23Z</time>
      </trkpt>
      <trkpt lat="44.42367" lon="1.83392">
        <ele>341.311</ele>
        <time>2016-09-15T08:24:43Z</time>
      </trkpt>
      <trkpt lat="44.42329" lon="1.83437">
        <ele>345.108</ele>
        <time>2016-09-15T08:25:03Z</time>
      </trkpt>
      <trkpt lat="44.42295" lon="1.83447">
        <ele>344.3</ele>
      </trkpt>
      <trkpt lat="44.4226" lon="1.83448">
        <ele>345.4</ele>
        <time>2016-09-15T08:25:23Z</time>
      </trkpt>
      <trkpt lat="44.42265" lon="1.83356">
        <ele>343.2</ele>
        <time>2016-09-15T08:25:43Z</time>
      </trkpt>
      <trkpt lat="44.4228" lon="1.83262">
        <ele>342.434</ele>
        <time>2016-09-15T08:26:03Z</time>
      </trkpt>
      <trkpt lat="44.42281" lon="1.83159">
        <ele>343.623</ele>
        <time>2016-09-15T08:26:23Z</time>
      </trkpt>
      <trkpt lat="44.42327" lon="1.82959">
        <ele>344.849</ele>
        <time>2016-09-15T08:26:43Z</time>
      </trkpt>
      <trkpt lat="44.42367" lon="1.82895">
        <ele>344.66</ele>
        <time>2016-09-15T08:27:03Z</time>
      </trkpt>
      <trkpt lat="44.42369" lon="1.82824">
        <ele>343.133</ele>
        <time>2016-09-15T08:27:23Z</time>
      </trkpt>
      <trkpt lat="44.42346" lon="1.82772">
        <ele>338.692</ele>
        <time>2016-09-15T08:27:43Z</time>
      </trkpt>
      <trkpt lat="44.42376" lon="1.82646">
        <ele>331.861</ele>
        <time>2016-09-15T08:28:03Z</time>
      </trkpt>
      <trkpt lat="44.42392" lon="1.82614">
        <ele>328.421</ele>
        <time>2016-09-15T08:28:23Z</time>
      </trkpt>
      <trkpt lat="44.42401" lon="1.82407">
        <ele>315.813</ele>
        <time>2019-03-30T13:34:25Z</time>
      </trkpt>
      <trkpt lat="44.42379" lon="1.8225">
        <ele>307.308</ele>
        <time>2019-03-30T13:34:45Z</time>
      </trkpt>
      <trkpt lat="44.42397" lon="1.8208">
        <ele>310.862</ele>
        <time>2019-03-30T13:35:05Z</time>
      </trkpt>
      <trkpt lat="44.42397" lon="1.81977">
        <ele>310.989</ele>
        <time>2019-03-30T13:35:25Z</time>
      </trkpt>
      <trkpt lat="44.42364" lon="1.81871">
        <ele>310.3</ele>
        <time>2019-03-30T13:35:45Z</time>
      </trkpt>
      <trkpt lat="44.42364" lon="1.81814">
        <ele>310.6</ele>
      </trkpt>
      <trkpt lat="44.42375" lon="1.81759">
        <ele>312.077</ele>
        <time>2016-09-15T08:30:23Z</time>
      </trkpt>
      <trkpt lat="44.42391" lon="1.81708">
        <ele>311.8</ele>
        <time>2016-09-15T08:30:43Z</time>
      </trkpt>
      <trkpt lat="44.4243" lon="1.81675">
        <ele>312.064</ele>
        <time>2019-03-30T13:36:45Z</time>
      </trkpt>
      <trkpt lat="44.42452" lon="1.8161">
        <ele>309.9</ele>
      </trkpt>
      <trkpt lat="44.4247" lon="1.81533">
        <ele>309.327</ele>
        <time>2019-03-30T13:37:05Z</time>
      </trkpt>
      <trkpt lat="44.4233" lon="1.81446">
        <ele>299.286</ele>
        <time>2016-09-15T08:31:43Z</time>
      </trkpt>
      <trkpt lat="44.42284" lon="1.81362">
        <ele>300.4</ele>
        <time>2016-09-15T08:32:03Z</time>
      </trkpt>
      <trkpt lat="44.42185" lon="1.81388">
        <ele>305.307</ele>
        <time>2016-09-15T08:32:23Z</time>
      </trkpt>
      <trkpt lat="44.42103" lon="1.81414">
        <ele>303.9</ele>
      </trkpt>
      <trkpt lat="44.42057" lon="1.81443">
        <ele>305</ele>
        <time>2016-09-15T08:32:43Z</time>
      </trkpt>
      <trkpt lat="44.41999" lon="1.81427">
        <ele>310.108</ele>
        <time>2016-09-15T08:33:03Z</time>
      </trkpt>
      <trkpt lat="44.41917" lon="1.81442">
        <ele>315</ele>
        <time>2016-09-15T08:33:23Z</time>
      </trkpt>
      <trkpt lat="44.41886" lon="1.81434">
        <ele>317.8</ele>
      </trkpt>
      <trkpt lat="44.41855" lon="1.81412">
        <ele>317.862</ele>
        <time>2016-09-15T08:33:43Z</time>
      </trkpt>
      <trkpt lat="44.4174" lon="1.8141">
        <ele>316.611</ele>
        <time>2016-09-15T08:34:03Z</time>
      </trkpt>
      <trkpt lat="44.41698" lon="1.81355">
        <ele>316.7</ele>
      </trkpt>
      <trkpt lat="44.41658" lon="1.81284">
        <ele>322.46</ele>
        <time>2019-03-30T13:40:05Z</time>
      </trkpt>
      <trkpt lat="44.41609" lon="1.81278">
        <ele>325.046</ele>
        <time>2019-03-30T13:40:25Z</time>
      </trkpt>
      <trkpt lat="44.41559" lon="1.81235">
        <ele>325.787</ele>
        <time>2019-03-30T13:40:45Z</time>
      </trkpt>
      <trkpt lat="44.41508" lon="1.81094">
        <ele>318.35</ele>
        <time>2019-03-30T13:41:05Z</time>
      </trkpt>
      <trkpt lat="44.41499" lon="1.81011">
        <ele>315.369</ele>
        <time>2019-03-30T13:41:25Z</time>
      </trkpt>
      <trkpt lat="44.41504" lon="1.80915">
        <ele>312.285</ele>
        <time>2019-03-30T13:41:45Z</time>
      </trkpt>
      <trkpt lat="44.4147" lon="1.80836">
        <ele>306.189</ele>
        <time>2019-03-30T13:42:05Z</time>
      </trkpt>
      <trkpt lat="44.41454" lon="1.8073">
        <ele>307.817</ele>
        <time>2019-03-30T13:42:25Z</time>
      </trkpt>
      <trkpt lat="44.41473" lon="1.80624">
        <ele>300.908</ele>
        <time>2019-03-30T13:42:45Z</time>
      </trkpt>
      <trkpt lat="44.41464" lon="1.80575">
        <ele>299.034</ele>
        <time>2019-03-30T13:43:05Z</time>
      </trkpt>
      <trkpt lat="44.41409" lon="1.8046">
        <ele>302.961</ele>
        <time>2019-03-30T13:43:25Z</time>
      </trkpt>
      <trkpt lat="44.41353" lon="1.80375">
        <ele>301.16</ele>
        <time>2019-03-30T13:43:45Z</time>
      </trkpt>
      <trkpt lat="44.41295" lon="1.80322">
        <ele>294.4</ele>
        <time>2019-03-30T13:44:05Z</time>
      </trkpt>
      <trkpt lat="44.413" lon="1.80243">
        <ele>293.165</ele>
        <time>2019-03-30T13:44:25Z</time>
      </trkpt>
      <trkpt lat="44.41284" lon="1.80209">
        <ele>289.846</ele>
        <time>2019-03-30T13:44:45Z</time>
      </trkpt>
      <trkpt lat="44.41251" lon="1.80195">
        <ele>287.189</ele>
        <time>2016-09-15T08:38:23Z</time>
      </trkpt>
      <trkpt lat="44.41127" lon="1.80285">
        <ele>304.298</ele>
        <time>2019-03-30T13:45:25Z</time>
      </trkpt>
      <trkpt lat="44.41099" lon="1.80354">
        <ele>305.941</ele>
        <time>2016-09-15T08:39:03Z</time>
      </trkpt>
      <trkpt lat="44.4105" lon="1.80387">
        <ele>309.681</ele>
        <time>2019-03-30T13:46:05Z</time>
      </trkpt>
      <trkpt lat="44.41013" lon="1.8044">
        <ele>314.109</ele>
        <time>2019-03-30T13:46:25Z</time>
      </trkpt>
      <trkpt lat="44.40923" lon="1.80506">
        <ele>315.8</ele>
      </trkpt>
      <trkpt lat="44.40839" lon="1.80586">
        <ele>324.308</ele>
        <time>2019-03-30T13:46:45Z</time>
      </trkpt>
      <trkpt lat="44.40743" lon="1.80693">
        <ele>335.74</ele>
        <time>2019-03-30T13:47:05Z</time>
      </trkpt>
      <trkpt lat="44.40722" lon="1.8068">
        <ele>337.057</ele>
        <time>2016-09-15T08:40:23Z</time>
      </trkpt>
      <trkpt lat="44.40718" lon="1.80607">
        <ele>329.2</ele>
        <time>2016-09-15T08:40:43Z</time>
      </trkpt>
      <trkpt lat="44.4064" lon="1.8047">
        <ele>328.9</ele>
        <time>2016-09-15T08:41:03Z</time>
      </trkpt>
      <trkpt lat="44.40616" lon="1.80476">
        <ele>329.9</ele>
      </trkpt>
      <trkpt lat="44.40579" lon="1.80509">
        <ele>332.361</ele>
        <time>2019-03-30T13:48:25Z</time>
      </trkpt>
      <trkpt lat="44.40522" lon="1.80451">
        <ele>321.9</ele>
        <time>2019-03-30T13:48:45Z</time>
      </trkpt>
      <trkpt lat="44.40456" lon="1.80487">
        <ele>318.1</ele>
        <time>2019-03-30T13:49:05Z</time>
      </trkpt>
      <trkpt lat="44.40425" lon="1.80492">
        <ele>315.8</ele>
      </trkpt>
      <trkpt lat="44.40402" lon="1.805">
        <ele>314.9</ele>
      </trkpt>
      <trkpt lat="44.40398" lon="1.80496">
        <ele>314.5</ele>
        <time>2019-03-30T13:49:25Z</time>
      </trkpt>
      <trkpt lat="44.40386" lon="1.80481">
        <ele>314.3</ele>
      </trkpt>
      <trkpt lat="44.40361" lon="1.80473">
        <ele>317.9</ele>
      </trkpt>
      <trkpt lat="44.40346" lon="1.80458">
        <ele>321</ele>
        <time>2016-09-15T08:43:03Z</time>
      </trkpt>
      <trkpt lat="44.40335" lon="1.80399">
        <ele>323.905</ele>
        <time>2016-09-15T08:43:23Z</time>
      </trkpt>
      <trkpt lat="44.40327" lon="1.80392">
        <ele>324</ele>
      </trkpt>
      <trkpt lat="44.4031" lon="1.80394">
        <ele>324</ele>
      </trkpt>
      <trkpt lat="44.40286" lon="1.804">
        <ele>323.6</ele>
        <time>2016-09-15T08:43:43Z</time>
      </trkpt>
      <trkpt lat="44.4019" lon="1.80279">
        <ele>326.1</ele>
        <time>2019-03-30T13:50:45Z</time>
      </trkpt>
      <trkpt lat="44.40217" lon="1.80174">
        <ele>324.9</ele>
        <time>2016-09-15T08:44:23Z</time>
      </trkpt>
      <trkpt lat="44.40171" lon="1.8012">
        <ele>322.317</ele>
        <time>2016-09-15T08:44:43Z</time>
      </trkpt>
      <trkpt lat="44.4014" lon="1.80052">
        <ele>320.3</ele>
      </trkpt>
      <trkpt lat="44.40134" lon="1.80026">
        <ele>323.9</ele>
        <time>2016-09-15T08:45:03Z</time>
      </trkpt>
      <trkpt lat="44.40135" lon="1.79991">
        <ele>327.7</ele>
      </trkpt>
      <trkpt lat="44.40156" lon="1.7993">
        <ele>326.1</ele>
      </trkpt>
      <trkpt lat="44.4016" lon="1.79931">
        <ele>327.945</ele>
        <time>2016-09-15T08:45:23Z</time>
      </trkpt>
      <trkpt lat="44.4014" lon="1.79882">
        <ele>324</ele>
        <time>2016-09-15T08:45:43Z</time>
      </trkpt>
      <trkpt lat="44.40119" lon="1.79837">
        <ele>322.5</ele>
        <time>2016-09-15T08:46:03Z</time>
      </trkpt>
      <trkpt lat="44.40113" lon="1.79817">
        <ele>323.6</ele>
      </trkpt>
      <trkpt lat="44.40104" lon="1.79805">
        <ele>324.7</ele>
        <time>2016-09-15T08:46:23Z</time>
      </trkpt>
      <trkpt lat="44.40094" lon="1.79797">
        <ele>325.7</ele>
        <time>2016-09-15T08:46:43Z</time>
      </trkpt>
      <trkpt lat="44.40086" lon="1.79791">
        <ele>326.2</ele>
      </trkpt>
      <trkpt lat="44.40059" lon="1.79752">
        <ele>324.2</ele>
        <time>2016-09-15T08:47:03Z</time>
      </trkpt>
      <trkpt lat="44.40043" lon="1.7975">
        <ele>322.6</ele>
      </trkpt>
      <trkpt lat="44.40021" lon="1.79756">
        <ele>321</ele>
        <time>2016-09-15T08:47:23Z</time>
      </trkpt>
      <trkpt lat="44.3997" lon="1.79805">
        <ele>324.715</ele>
        <time>2016-09-15T08:47:43Z</time>
      </trkpt>
      <trkpt lat="44.39919" lon="1.79873">
        <ele>329.908</ele>
        <time>2016-09-15T08:48:03Z</time>
      </trkpt>
      <trkpt lat="44.3989" lon="1.79938">
        <ele>329.6</ele>
      </trkpt>
      <trkpt lat="44.3987" lon="1.80011">
        <ele>331.723</ele>
        <time>2016-09-15T08:48:23Z</time>
      </trkpt>
      <trkpt lat="44.39859" lon="1.80062">
        <ele>327.4</ele>
        <time>2016-09-15T08:48:43Z</time>
      </trkpt>
      <trkpt lat="44.39823" lon="1.79976">
        <ele>324.899</ele>
        <time>2016-09-15T08:49:03Z</time>
      </trkpt>
      <trkpt lat="44.39859" lon="1.79805">
        <ele>315.7</ele>
      </trkpt>
      <trkpt lat="44.39911" lon="1.79644">
        <ele>317.398</ele>
        <time>2016-09-15T08:49:23Z</time>
      </trkpt>
      <trkpt lat="44.39853" lon="1.79549">
        <ele>325.674</ele>
        <time>2016-09-15T08:49:43Z</time>
      </trkpt>
      <trkpt lat="44.39844" lon="1.795">
        <ele>327.255</ele>
        <time>2016-09-15T08:50:03Z</time>
      </trkpt>
      <trkpt lat="44.39777" lon="1.79416">
        <ele>328.178</ele>
        <time>2016-09-15T08:50:23Z</time>
      </trkpt>
      <trkpt lat="44.39767" lon="1.79313">
        <ele>325.197</ele>
        <time>2016-09-15T08:50:43Z</time>
      </trkpt>
      <trkpt lat="44.39731" lon="1.79137">
        <ele>315.781</ele>
        <time>2016-09-15T08:51:03Z</time>
      </trkpt>
      <trkpt lat="44.39658" lon="1.79017">
        <ele>323.561</ele>
        <time>2016-09-15T08:51:23Z</time>
      </trkpt>
      <trkpt lat="44.39608" lon="1.78884">
        <ele>328.217</ele>
        <time>2016-09-15T08:51:43Z</time>
      </trkpt>
      <trkpt lat="44.39594" lon="1.78749">
        <ele>327.308</ele>
        <time>2016-09-15T08:52:03Z</time>
      </trkpt>
      <trkpt lat="44.39597" lon="1.78614">
        <ele>324.024</ele>
        <time>2016-09-15T08:52:23Z</time>
      </trkpt>
      <trkpt lat="44.39583" lon="1.78511">
        <ele>323.421</ele>
        <time>2019-03-30T13:59:25Z</time>
      </trkpt>
      <trkpt lat="44.39593" lon="1.7841">
        <ele>318.07</ele>
        <time>2019-03-30T13:59:45Z</time>
      </trkpt>
      <trkpt lat="44.39641" lon="1.78299">
        <ele>308.699</ele>
        <time>2019-03-30T14:00:05Z</time>
      </trkpt>
      <trkpt lat="44.3964" lon="1.78167">
        <ele>306.9</ele>
      </trkpt>
      <trkpt lat="44.39628" lon="1.78021">
        <ele>313.615</ele>
        <time>2019-03-30T14:00:25Z</time>
      </trkpt>
      <trkpt lat="44.39646" lon="1.77789">
        <ele>314.726</ele>
        <time>2019-03-30T14:00:45Z</time>
      </trkpt>
      <trkpt lat="44.39716" lon="1.77567">
        <ele>304.2</ele>
        <time>2019-03-30T14:01:05Z</time>
      </trkpt>
      <trkpt lat="44.39787" lon="1.77389">
        <ele>293.058</ele>
        <time>2019-03-30T14:01:25Z</time>
      </trkpt>
      <trkpt lat="44.39763" lon="1.77241">
        <ele>294.7</ele>
      </trkpt>
      <trkpt lat="44.39751" lon="1.77078">
        <ele>304.473</ele>
        <time>2019-03-30T14:01:45Z</time>
      </trkpt>
      <trkpt lat="44.39595" lon="1.76809">
        <ele>312.785</ele>
        <time>2019-03-30T14:02:05Z</time>
      </trkpt>
      <trkpt lat="44.39465" lon="1.76724">
        <ele>316.513</ele>
        <time>2019-03-30T14:02:25Z</time>
      </trkpt>
      <trkpt lat="44.39378" lon="1.76694">
        <ele>323.208</ele>
        <time>2019-03-30T14:02:45Z</time>
      </trkpt>
      <trkpt lat="44.39367" lon="1.76588">
        <ele>326.633</ele>
        <time>2016-09-15T08:58:03Z</time>
      </trkpt>
      <trkpt lat="44.39342" lon="1.76516">
        <ele>324.3</ele>
        <time>2016-09-15T08:58:23Z</time>
      </trkpt>
      <trkpt lat="44.39292" lon="1.7644">
        <ele>323.239</ele>
        <time>2016-09-15T08:58:43Z</time>
      </trkpt>
      <trkpt lat="44.39235" lon="1.76309">
        <ele>319.378</ele>
        <time>2016-09-15T08:59:03Z</time>
      </trkpt>
      <trkpt lat="44.39228" lon="1.76077">
        <ele>325.174</ele>
        <time>2016-09-15T08:59:23Z</time>
      </trkpt>
      <trkpt lat="44.39215" lon="1.75934">
        <ele>326.545</ele>
        <time>2016-09-15T08:59:43Z</time>
      </trkpt>
      <trkpt lat="44.39195" lon="1.75869">
        <ele>322.868</ele>
        <time>2016-09-15T09:00:03Z</time>
      </trkpt>
      <trkpt lat="44.39157" lon="1.75807">
        <ele>327.457</ele>
        <time>2016-09-15T09:00:23Z</time>
      </trkpt>
      <trkpt lat="44.39096" lon="1.75732">
        <ele>326.875</ele>
        <time>2016-09-15T09:00:43Z</time>
      </trkpt>
      <trkpt lat="44.3897" lon="1.75434">
        <ele>315.528</ele>
        <time>2016-09-15T09:01:03Z</time>
      </trkpt>
      <trkpt lat="44.38886" lon="1.75271">
        <ele>306.92</ele>
        <time>2016-09-15T09:01:23Z</time>
      </trkpt>
      <trkpt lat="44.38843" lon="1.75097">
        <ele>296.708</ele>
        <time>2016-09-15T09:01:43Z</time>
      </trkpt>
      <trkpt lat="44.38812" lon="1.7502">
        <ele>291.853</ele>
        <time>2016-09-15T09:02:03Z</time>
      </trkpt>
      <trkpt lat="44.38751" lon="1.74979">
        <ele>286.81</ele>
        <time>2016-09-15T09:02:23Z</time>
      </trkpt>
      <trkpt lat="44.3873" lon="1.7496">
        <ele>281.7</ele>
      </trkpt>
      <trkpt lat="44.38714" lon="1.74927">
        <ele>283.119</ele>
        <time>2016-09-15T09:02:43Z</time>
      </trkpt>
      <trkpt lat="44.38696" lon="1.74878">
        <ele>280.778</ele>
        <time>2016-09-15T09:03:03Z</time>
      </trkpt>
      <trkpt lat="44.38709" lon="1.7479">
        <ele>276.494</ele>
        <time>2016-09-15T09:03:23Z</time>
      </trkpt>
      <trkpt lat="44.38633" lon="1.74629">
        <ele>276.665</ele>
        <time>2016-09-15T09:03:43Z</time>
      </trkpt>
      <trkpt lat="44.38637" lon="1.74539">
        <ele>274.688</ele>
        <time>2016-09-15T09:04:03Z</time>
      </trkpt>
      <trkpt lat="44.38541" lon="1.74213">
        <ele>292.987</ele>
        <time>2016-09-15T09:04:23Z</time>
      </trkpt>
      <trkpt lat="44.38435" lon="1.74101">
        <ele>293.794</ele>
        <time>2016-09-15T09:04:43Z</time>
      </trkpt>
      <trkpt lat="44.38323" lon="1.73734">
        <ele>286.057</ele>
        <time>2016-09-15T09:05:03Z</time>
      </trkpt>
      <trkpt lat="44.38259" lon="1.73687">
        <ele>282.622</ele>
        <time>2016-09-15T09:05:23Z</time>
      </trkpt>
      <trkpt lat="44.38113" lon="1.73709">
        <ele>272.608</ele>
        <time>2016-09-15T09:05:43Z</time>
      </trkpt>
      <trkpt lat="44.38088" lon="1.73642">
        <ele>272.835</ele>
        <time>2016-09-15T09:06:03Z</time>
      </trkpt>
      <trkpt lat="44.38019" lon="1.735">
        <ele>278.352</ele>
        <time>2016-09-15T09:06:23Z</time>
      </trkpt>
      <trkpt lat="44.37993" lon="1.73385">
        <ele>280.091</ele>
        <time>2016-09-15T09:06:43Z</time>
      </trkpt>
      <trkpt lat="44.37998" lon="1.73316">
        <ele>279.96</ele>
        <time>2016-09-15T09:07:03Z</time>
      </trkpt>
      <trkpt lat="44.38011" lon="1.73261">
        <ele>276.4</ele>
        <time>2016-09-15T09:07:23Z</time>
      </trkpt>
      <trkpt lat="44.37783" lon="1.73142">
        <ele>279.267</ele>
        <time>2016-09-15T09:07:43Z</time>
      </trkpt>
      <trkpt lat="44.3776" lon="1.73082">
        <ele>278.63</ele>
        <time>2016-09-15T09:08:03Z</time>
      </trkpt>
      <trkpt lat="44.37705" lon="1.73022">
        <ele>281.579</ele>
        <time>2016-09-15T09:08:23Z</time>
      </trkpt>
      <trkpt lat="44.37679" lon="1.72971">
        <ele>280</ele>
        <time>2016-09-15T09:08:43Z</time>
      </trkpt>
      <trkpt lat="44.37837" lon="1.72897">
        <ele>278.1</ele>
        <time>2016-09-15T09:09:03Z</time>
      </trkpt>
      <trkpt lat="44.37964" lon="1.72859">
        <ele>276.02</ele>
        <time>2016-09-15T09:09:23Z</time>
      </trkpt>
      <trkpt lat="44.38004" lon="1.72865">
        <ele>276.908</ele>
        <time>2016-09-15T09:09:43Z</time>
      </trkpt>
      <trkpt lat="44.37978" lon="1.72749">
        <ele>280.238</ele>
        <time>2016-09-15T09:10:03Z</time>
      </trkpt>
      <trkpt lat="44.37881" lon="1.72468">
        <ele>282.395</ele>
        <time>2016-09-15T09:10:23Z</time>
      </trkpt>
      <trkpt lat="44.37927" lon="1.72183">
        <ele>269.134</ele>
        <time>2016-09-15T09:10:43Z</time>
      </trkpt>
      <trkpt lat="44.37979" lon="1.72099">
        <ele>269.763</ele>
        <time>2016-09-15T09:11:03Z</time>
      </trkpt>
      <trkpt lat="44.37972" lon="1.71966">
        <ele>265.059</ele>
        <time>2016-09-15T09:11:23Z</time>
      </trkpt>
      <trkpt lat="44.38018" lon="1.71818">
        <ele>261.51</ele>
        <time>2016-09-15T09:11:43Z</time>
      </trkpt>
      <trkpt lat="44.37987" lon="1.71674">
        <ele>267.793</ele>
        <time>2016-09-15T09:12:03Z</time>
      </trkpt>
      <trkpt lat="44.37959" lon="1.71625">
        <ele>269.462</ele>
        <time>2016-09-15T09:12:23Z</time>
      </trkpt>
      <trkpt lat="44.37943" lon="1.71535">
        <ele>270.087</ele>
        <time>2016-09-15T09:12:43Z</time>
      </trkpt>
      <trkpt lat="44.37561" lon="1.71739">
        <ele>281.842</ele>
        <time>2016-09-15T09:13:03Z</time>
      </trkpt>
      <trkpt lat="44.37515" lon="1.71773">
        <ele>281.526</ele>
        <time>2016-09-15T09:13:23Z</time>
      </trkpt>
      <trkpt lat="44.37371" lon="1.71837">
        <ele>282.708</ele>
        <time>2016-09-15T09:13:43Z</time>
      </trkpt>
      <trkpt lat="44.37274" lon="1.71938">
        <ele>286.164</ele>
        <time>2016-09-15T09:14:03Z</time>
      </trkpt>
      <trkpt lat="44.37208" lon="1.72012">
        <ele>286.8</ele>
        <time>2016-09-15T09:14:23Z</time>
      </trkpt>
      <trkpt lat="44.3707" lon="1.72073">
        <ele>288.47</ele>
        <time>2016-09-15T09:14:43Z</time>
      </trkpt>
      <trkpt lat="44.36637" lon="1.72355">
        <ele>298.219</ele>
        <time>2016-09-15T09:15:03Z</time>
      </trkpt>
      <trkpt lat="44.36482" lon="1.72282">
        <ele>298.945</ele>
        <time>2016-09-15T09:15:23Z</time>
      </trkpt>
      <trkpt lat="44.36389" lon="1.72228">
        <ele>297.636</ele>
        <time>2016-09-15T09:15:43Z</time>
      </trkpt>
      <trkpt lat="44.36345" lon="1.72272">
        <ele>297.3</ele>
        <time>2016-09-15T09:16:03Z</time>
      </trkpt>
      <trkpt lat="44.36203" lon="1.72249">
        <ele>303.168</ele>
        <time>2016-09-15T09:16:23Z</time>
      </trkpt>
      <trkpt lat="44.36084" lon="1.72264">
        <ele>312.061</ele>
        <time>2016-09-15T09:16:43Z</time>
      </trkpt>
      <trkpt lat="44.361" lon="1.72089">
        <ele>316.421</ele>
        <time>2016-09-15T09:17:03Z</time>
      </trkpt>
      <trkpt lat="44.36082" lon="1.7202">
        <ele>312.5</ele>
        <time>2016-09-15T09:17:23Z</time>
      </trkpt>
      <trkpt lat="44.36057" lon="1.71993">
        <ele>311.5</ele>
      </trkpt>
      <trkpt lat="44.3603" lon="1.71947">
        <ele>312.908</ele>
        <time>2016-09-15T09:17:43Z</time>
      </trkpt>
      <trkpt lat="44.36023" lon="1.71924">
        <ele>311.4</ele>
      </trkpt>
      <trkpt lat="44.3602" lon="1.71895">
        <ele>312.7</ele>
      </trkpt>
      <trkpt lat="44.36021" lon="1.71857">
        <ele>316.462</ele>
        <time>2016-09-15T09:18:03Z</time>
      </trkpt>
      <trkpt lat="44.36197" lon="1.7164">
        <ele>309.129</ele>
        <time>2016-09-15T09:18:23Z</time>
      </trkpt>
      <trkpt lat="44.36234" lon="1.71498">
        <ele>319.518</ele>
        <time>2016-09-15T09:18:43Z</time>
      </trkpt>
      <trkpt lat="44.36274" lon="1.7141">
        <ele>321.927</ele>
        <time>2016-09-15T09:19:03Z</time>
      </trkpt>
      <trkpt lat="44.36323" lon="1.71048">
        <ele>319.513</ele>
        <time>2016-09-15T09:19:23Z</time>
      </trkpt>
      <trkpt lat="44.36363" lon="1.70934">
        <ele>317.394</ele>
        <time>2016-09-15T09:19:43Z</time>
      </trkpt>
      <trkpt lat="44.36335" lon="1.70769">
        <ele>316.247</ele>
        <time>2016-09-15T09:20:03Z</time>
      </trkpt>
      <trkpt lat="44.36344" lon="1.70634">
        <ele>316.366</ele>
        <time>2016-09-15T09:20:23Z</time>
      </trkpt>
      <trkpt lat="44.36344" lon="1.70634">
        <ele>316.366</ele>
        <time>2016-09-15T09:20:23Z</time>
      </trkpt>
      <trkpt lat="44.36412" lon="1.70514">
        <ele>309.866</ele>
        <time>2016-09-15T09:20:43Z</time>
      </trkpt>
      <trkpt lat="44.36427" lon="1.70453">
        <ele>308.529</ele>
        <time>2016-09-15T09:21:03Z</time>
      </trkpt>
      <trkpt lat="44.36458" lon="1.70415">
        <ele>305.921</ele>
        <time>2016-09-15T09:21:23Z</time>
      </trkpt>
      <trkpt lat="44.36524" lon="1.70271">
        <ele>299.108</ele>
        <time>2016-09-15T09:21:43Z</time>
      </trkpt>
      <trkpt lat="44.36538" lon="1.70164">
        <ele>298.692</ele>
        <time>2016-09-15T09:22:03Z</time>
      </trkpt>
      <trkpt lat="44.3653" lon="1.7011">
        <ele>298.939</ele>
        <time>2016-09-15T09:22:23Z</time>
      </trkpt>
      <trkpt lat="44.36531" lon="1.69863">
        <ele>296.378</ele>
        <time>2016-09-15T09:22:43Z</time>
      </trkpt>
      <trkpt lat="44.36538" lon="1.69763">
        <ele>293.827</ele>
        <time>2016-09-15T09:23:03Z</time>
      </trkpt>
      <trkpt lat="44.36533" lon="1.69638">
        <ele>289.913</ele>
        <time>2016-09-15T09:23:23Z</time>
      </trkpt>
      <trkpt lat="44.36548" lon="1.69516">
        <ele>289.874</ele>
        <time>2016-09-15T09:23:43Z</time>
      </trkpt>
      <trkpt lat="44.36498" lon="1.69372">
        <ele>300.157</ele>
        <time>2016-09-15T09:24:03Z</time>
      </trkpt>
      <trkpt lat="44.36475" lon="1.6928">
        <ele>298.246</ele>
        <time>2016-09-15T09:24:23Z</time>
      </trkpt>
      <trkpt lat="44.36521" lon="1.69172">
        <ele>294.457</ele>
        <time>2016-09-15T09:24:43Z</time>
      </trkpt>
      <trkpt lat="44.36456" lon="1.69076">
        <ele>296.1</ele>
        <time>2016-09-15T09:25:03Z</time>
      </trkpt>
      <trkpt lat="44.36429" lon="1.68904">
        <ele>290.32</ele>
        <time>2016-09-15T09:25:23Z</time>
      </trkpt>
      <trkpt lat="44.36443" lon="1.68795">
        <ele>289.408</ele>
        <time>2016-09-15T09:25:43Z</time>
      </trkpt>
      <trkpt lat="44.36504" lon="1.6861">
        <ele>286.081</ele>
        <time>2016-09-15T09:26:03Z</time>
      </trkpt>
      <trkpt lat="44.36298" lon="1.6837">
        <ele>303.868</ele>
        <time>2016-09-15T09:26:23Z</time>
      </trkpt>
      <trkpt lat="44.36271" lon="1.68323">
        <ele>304.677</ele>
        <time>2016-09-15T09:26:43Z</time>
      </trkpt>
      <trkpt lat="44.36179" lon="1.68213">
        <ele>298.426</ele>
        <time>2016-09-15T09:27:03Z</time>
      </trkpt>
      <trkpt lat="44.35778" lon="1.67782">
        <ele>302.182</ele>
        <time>2016-09-15T09:27:23Z</time>
      </trkpt>
      <trkpt lat="44.35745" lon="1.67739">
        <ele>299.8</ele>
        <time>2016-09-15T09:28:03Z</time>
      </trkpt>
      <trkpt lat="44.35646" lon="1.67625">
        <ele>304.6</ele>
      </trkpt>
      <trkpt lat="44.35547" lon="1.67528">
        <ele>307.345</ele>
        <time>2016-09-15T09:28:23Z</time>
      </trkpt>
      <trkpt lat="44.35493" lon="1.67513">
        <ele>305.688</ele>
        <time>2016-09-15T09:28:43Z</time>
      </trkpt>
      <trkpt lat="44.35447" lon="1.67465">
        <ele>303.024</ele>
        <time>2016-09-15T09:29:03Z</time>
      </trkpt>
      <trkpt lat="44.35373" lon="1.67401">
        <ele>306.426</ele>
        <time>2016-09-15T09:29:23Z</time>
      </trkpt>
      <trkpt lat="44.35338" lon="1.6732">
        <ele>309.808</ele>
        <time>2016-09-15T09:29:43Z</time>
      </trkpt>
      <trkpt lat="44.35278" lon="1.67281">
        <ele>314.034</ele>
        <time>2016-09-15T09:30:03Z</time>
      </trkpt>
      <trkpt lat="44.35206" lon="1.67257">
        <ele>315.621</ele>
        <time>2016-09-15T09:30:23Z</time>
      </trkpt>
      <trkpt lat="44.35134" lon="1.67206">
        <ele>320.83</ele>
        <time>2016-09-15T09:30:43Z</time>
      </trkpt>
      <trkpt lat="44.35111" lon="1.67211">
        <ele>318</ele>
        <time>2016-09-15T09:31:03Z</time>
      </trkpt>
      <trkpt lat="44.35069" lon="1.67168">
        <ele>317.5</ele>
      </trkpt>
      <trkpt lat="44.35032" lon="1.67245">
        <ele>319.7</ele>
      </trkpt>
      <trkpt lat="44.35028" lon="1.67277">
        <ele>319</ele>
      </trkpt>
      <trkpt lat="44.35029" lon="1.67244">
        <ele>319.8</ele>
      </trkpt>
      <trkpt lat="44.35063" lon="1.67167">
        <ele>317.7</ele>
      </trkpt>
      <trkpt lat="44.34862" lon="1.66978">
        <ele>319.035</ele>
        <time>2016-09-15T09:31:23Z</time>
      </trkpt>
      <trkpt lat="44.34724" lon="1.66751">
        <ele>314.036</ele>
        <time>2016-09-15T09:31:43Z</time>
      </trkpt>
      <trkpt lat="44.34704" lon="1.66676">
        <ele>313.319</ele>
        <time>2016-09-15T09:32:03Z</time>
      </trkpt>
      <trkpt lat="44.34726" lon="1.66575">
        <ele>313.148</ele>
        <time>2016-09-15T09:32:23Z</time>
      </trkpt>
      <trkpt lat="44.34611" lon="1.65918">
        <ele>310.056</ele>
        <time>2016-09-15T09:32:43Z</time>
      </trkpt>
      <trkpt lat="44.345" lon="1.65669">
        <ele>308.159</ele>
        <time>2016-09-15T09:33:03Z</time>
      </trkpt>
      <trkpt lat="44.34649" lon="1.65099">
        <ele>305.814</ele>
        <time>2016-09-15T09:33:23Z</time>
      </trkpt>
      <trkpt lat="44.34681" lon="1.64966">
        <ele>305.208</ele>
        <time>2016-09-15T09:33:43Z</time>
      </trkpt>
      <trkpt lat="44.34712" lon="1.64818">
        <ele>304.441</ele>
        <time>2016-09-15T09:34:03Z</time>
      </trkpt>
      <trkpt lat="44.34712" lon="1.64695">
        <ele>305.658</ele>
        <time>2016-09-15T09:34:23Z</time>
      </trkpt>
      <trkpt lat="44.3466" lon="1.64509">
        <ele>303.197</ele>
        <time>2016-09-15T09:34:43Z</time>
      </trkpt>
      <trkpt lat="44.34615" lon="1.6429">
        <ele>302.916</ele>
        <time>2016-09-15T09:35:03Z</time>
      </trkpt>
      <trkpt lat="44.34572" lon="1.64182">
        <ele>308.872</ele>
        <time>2016-09-15T09:35:23Z</time>
      </trkpt>
      <trkpt lat="44.34523" lon="1.64099">
        <ele>312.133</ele>
        <time>2016-09-15T09:35:43Z</time>
      </trkpt>
      <trkpt lat="44.34454" lon="1.63818">
        <ele>312.856</ele>
        <time>2016-09-15T09:36:03Z</time>
      </trkpt>
      <trkpt lat="44.34434" lon="1.63637">
        <ele>314.875</ele>
        <time>2016-09-15T09:36:23Z</time>
      </trkpt>
      <trkpt lat="44.34472" lon="1.63288">
        <ele>314.385</ele>
        <time>2016-09-15T09:36:43Z</time>
      </trkpt>
      <trkpt lat="44.34512" lon="1.63105">
        <ele>310.989</ele>
        <time>2016-09-15T09:37:03Z</time>
      </trkpt>
      <trkpt lat="44.34617" lon="1.62822">
        <ele>306.817</ele>
        <time>2016-09-15T09:37:23Z</time>
      </trkpt>
      <trkpt lat="44.34703" lon="1.62511">
        <ele>298.008</ele>
        <time>2016-09-15T09:37:43Z</time>
      </trkpt>
      <trkpt lat="44.34707" lon="1.61726">
        <ele>264.274</ele>
        <time>2016-09-15T09:38:03Z</time>
      </trkpt>
      <trkpt lat="44.34726" lon="1.61663">
        <ele>260.011</ele>
        <time>2016-09-15T09:38:23Z</time>
      </trkpt>
      <trkpt lat="44.3473" lon="1.61573">
        <ele>262.26</ele>
        <time>2016-09-15T09:38:43Z</time>
      </trkpt>
      <trkpt lat="44.34804" lon="1.61429">
        <ele>261.739</ele>
        <time>2016-09-15T09:39:03Z</time>
      </trkpt>
      <trkpt lat="44.34822" lon="1.61268">
        <ele>267.545</ele>
        <time>2016-09-15T09:39:23Z</time>
      </trkpt>
      <trkpt lat="44.34824" lon="1.61135">
        <ele>274.466</ele>
        <time>2016-09-15T09:39:43Z</time>
      </trkpt>
      <trkpt lat="44.34804" lon="1.61015">
        <ele>278.489</ele>
        <time>2016-09-15T09:40:03Z</time>
      </trkpt>
      <trkpt lat="44.34782" lon="1.60601">
        <ele>281.048</ele>
        <time>2016-09-15T09:40:23Z</time>
      </trkpt>
      <trkpt lat="44.34835" lon="1.60294">
        <ele>273.974</ele>
        <time>2016-09-15T09:40:43Z</time>
      </trkpt>
      <trkpt lat="44.34873" lon="1.60208">
        <ele>269.456</ele>
        <time>2016-09-15T09:41:03Z</time>
      </trkpt>
      <trkpt lat="44.34884" lon="1.60138">
        <ele>267.021</ele>
        <time>2016-09-15T09:41:23Z</time>
      </trkpt>
      <trkpt lat="44.34917" lon="1.60088">
        <ele>268.808</ele>
        <time>2016-09-15T09:41:43Z</time>
      </trkpt>
      <trkpt lat="44.34973" lon="1.59955">
        <ele>272.023</ele>
        <time>2016-09-15T09:42:03Z</time>
      </trkpt>
      <trkpt lat="44.35082" lon="1.59751">
        <ele>276.94</ele>
        <time>2016-09-15T09:42:23Z</time>
      </trkpt>
      <trkpt lat="44.35151" lon="1.59655">
        <ele>278.299</ele>
        <time>2016-09-15T09:42:43Z</time>
      </trkpt>
      <trkpt lat="44.3527" lon="1.59412">
        <ele>274.438</ele>
        <time>2016-09-15T09:43:03Z</time>
      </trkpt>
      <trkpt lat="44.35428" lon="1.59144">
        <ele>276.614</ele>
        <time>2016-09-15T09:43:23Z</time>
      </trkpt>
      <trkpt lat="44.35527" lon="1.58921">
        <ele>276.965</ele>
        <time>2016-09-15T09:43:43Z</time>
      </trkpt>
      <trkpt lat="44.3559" lon="1.58679">
        <ele>282.358</ele>
        <time>2016-09-15T09:44:03Z</time>
      </trkpt>
      <trkpt lat="44.35629" lon="1.58412">
        <ele>279.967</ele>
        <time>2016-09-15T09:44:23Z</time>
      </trkpt>
      <trkpt lat="44.35651" lon="1.58067">
        <ele>268.443</ele>
        <time>2016-09-15T09:44:43Z</time>
      </trkpt>
      <trkpt lat="44.35642" lon="1.57955">
        <ele>268.064</ele>
        <time>2016-09-15T09:45:03Z</time>
      </trkpt>
      <trkpt lat="44.3566" lon="1.57831">
        <ele>271.21</ele>
        <time>2016-09-15T09:45:23Z</time>
      </trkpt>
      <trkpt lat="44.35794" lon="1.57501">
        <ele>273.908</ele>
        <time>2016-09-15T09:45:43Z</time>
      </trkpt>
      <trkpt lat="44.35912" lon="1.57181">
        <ele>269.83</ele>
        <time>2016-09-15T09:46:03Z</time>
      </trkpt>
      <trkpt lat="44.35982" lon="1.57082">
        <ele>265.717</ele>
        <time>2016-09-15T09:46:23Z</time>
      </trkpt>
      <trkpt lat="44.36139" lon="1.56913">
        <ele>252.796</ele>
        <time>2016-09-15T09:46:43Z</time>
      </trkpt>
      <trkpt lat="44.36179" lon="1.56833">
        <ele>251.095</ele>
        <time>2016-09-15T09:47:03Z</time>
      </trkpt>
      <trkpt lat="44.36251" lon="1.56604">
        <ele>258.131</ele>
        <time>2016-09-15T09:47:23Z</time>
      </trkpt>
      <trkpt lat="44.36301" lon="1.56462">
        <ele>261.612</ele>
        <time>2016-09-15T09:47:43Z</time>
      </trkpt>
      <trkpt lat="44.36378" lon="1.56312">
        <ele>268.245</ele>
        <time>2016-09-15T09:48:03Z</time>
      </trkpt>
      <trkpt lat="44.36453" lon="1.5614">
        <ele>269.064</ele>
        <time>2016-09-15T09:48:23Z</time>
      </trkpt>
      <trkpt lat="44.36613" lon="1.55872">
        <ele>278.452</ele>
        <time>2016-09-15T09:48:43Z</time>
      </trkpt>
      <trkpt lat="44.36728" lon="1.55533">
        <ele>276.253</ele>
        <time>2016-09-15T09:49:03Z</time>
      </trkpt>
      <trkpt lat="44.36944" lon="1.55151">
        <ele>273.608</ele>
        <time>2016-09-15T09:49:23Z</time>
      </trkpt>
      <trkpt lat="44.37016" lon="1.54947">
        <ele>276.008</ele>
        <time>2016-09-15T09:49:43Z</time>
      </trkpt>
      <trkpt lat="44.37085" lon="1.54649">
        <ele>272.481</ele>
        <time>2016-09-15T09:50:03Z</time>
      </trkpt>
      <trkpt lat="44.37134" lon="1.5453">
        <ele>273.8</ele>
      </trkpt>
      <trkpt lat="44.37169" lon="1.54408">
        <ele>272.9</ele>
        <time>2016-09-15T09:50:23Z</time>
      </trkpt>
      <trkpt lat="44.37202" lon="1.54147">
        <ele>268.947</ele>
        <time>2016-09-15T09:50:43Z</time>
      </trkpt>
      <trkpt lat="44.37216" lon="1.53962">
        <ele>263.796</ele>
        <time>2016-09-15T09:51:03Z</time>
      </trkpt>
      <trkpt lat="44.37271" lon="1.53825">
        <ele>257.852</ele>
        <time>2016-09-15T09:51:23Z</time>
      </trkpt>
      <trkpt lat="44.37298" lon="1.53743">
        <ele>255.133</ele>
        <time>2016-09-15T09:51:43Z</time>
      </trkpt>
      <trkpt lat="44.37352" lon="1.53645">
        <ele>251.386</ele>
        <time>2016-09-15T09:52:03Z</time>
      </trkpt>
      <trkpt lat="44.37381" lon="1.53569">
        <ele>248.675</ele>
        <time>2016-09-15T09:52:23Z</time>
      </trkpt>
      <trkpt lat="44.37399" lon="1.53533">
        <ele>239.9</ele>
      </trkpt>
      <trkpt lat="44.37425" lon="1.53502">
        <ele>235.9</ele>
        <time>2016-09-15T09:52:43Z</time>
      </trkpt>
      <trkpt lat="44.37441" lon="1.53482">
        <ele>233.3</ele>
      </trkpt>
      <trkpt lat="44.3746" lon="1.53471">
        <ele>230.4</ele>
      </trkpt>
      <trkpt lat="44.37477" lon="1.53475">
        <ele>230.1</ele>
        <time>2016-09-15T09:53:03Z</time>
      </trkpt>
      <trkpt lat="44.37487" lon="1.53348">
        <ele>226.8</ele>
        <time>2016-09-15T09:53:23Z</time>
      </trkpt>
      <trkpt lat="44.37446" lon="1.53039">
        <ele>223.608</ele>
        <time>2016-09-15T09:53:43Z</time>
      </trkpt>
      <trkpt lat="44.3745" lon="1.52979">
        <ele>220.715</ele>
        <time>2016-09-15T09:54:03Z</time>
      </trkpt>
      <trkpt lat="44.37507" lon="1.52812">
        <ele>218.212</ele>
        <time>2016-09-15T09:54:23Z</time>
      </trkpt>
      <trkpt lat="44.37536" lon="1.52681">
        <ele>216.991</ele>
        <time>2016-09-15T09:54:43Z</time>
      </trkpt>
      <trkpt lat="44.37608" lon="1.52602">
        <ele>210.15</ele>
        <time>2016-09-15T09:55:03Z</time>
      </trkpt>
      <trkpt lat="44.37643" lon="1.52513">
        <ele>203.4</ele>
      </trkpt>
      <trkpt lat="44.37678" lon="1.52462">
        <ele>199.7</ele>
        <time>2016-09-15T09:55:23Z</time>
      </trkpt>
      <trkpt lat="44.37809" lon="1.52416">
        <ele>196.6</ele>
        <time>2016-09-15T09:55:43Z</time>
      </trkpt>
      <trkpt lat="44.37846" lon="1.52431">
        <ele>197</ele>
      </trkpt>
      <trkpt lat="44.37894" lon="1.52449">
        <ele>199.91</ele>
        <time>2016-09-15T09:56:03Z</time>
      </trkpt>
      <trkpt lat="44.37942" lon="1.52436">
        <ele>196.7</ele>
      </trkpt>
      <trkpt lat="44.37995" lon="1.52409">
        <ele>199.959</ele>
        <time>2016-09-15T09:56:23Z</time>
      </trkpt>
      <trkpt lat="44.38053" lon="1.52415">
        <ele>198.068</ele>
        <time>2016-09-15T09:56:43Z</time>
      </trkpt>
      <trkpt lat="44.38114" lon="1.52351">
        <ele>197.942</ele>
        <time>2016-09-15T09:57:03Z</time>
      </trkpt>
      <trkpt lat="44.38174" lon="1.52293">
        <ele>198.308</ele>
        <time>2016-09-15T09:57:43Z</time>
      </trkpt>
      <trkpt lat="44.38196" lon="1.52147">
        <ele>194.752</ele>
        <time>2016-09-15T09:58:03Z</time>
      </trkpt>
      <trkpt lat="44.38266" lon="1.52082">
        <ele>196.119</ele>
        <time>2016-09-15T09:58:23Z</time>
      </trkpt>
      <trkpt lat="44.38308" lon="1.52009">
        <ele>192.418</ele>
        <time>2016-09-15T09:58:43Z</time>
      </trkpt>
      <trkpt lat="44.38375" lon="1.5193">
        <ele>196.027</ele>
        <time>2016-09-15T09:59:03Z</time>
      </trkpt>
      <trkpt lat="44.38435" lon="1.51814">
        <ele>192.873</ele>
        <time>2016-09-15T09:59:23Z</time>
      </trkpt>
      <trkpt lat="44.38547" lon="1.5178">
        <ele>190.644</ele>
        <time>2016-09-15T09:59:43Z</time>
      </trkpt>
      <trkpt lat="44.38561" lon="1.51713">
        <ele>186.2</ele>
        <time>2016-09-15T10:00:03Z</time>
      </trkpt>
      <trkpt lat="44.38617" lon="1.51707">
        <ele>187.666</ele>
        <time>2016-09-15T10:00:23Z</time>
      </trkpt>
      <trkpt lat="44.38619" lon="1.51681">
        <ele>185.6</ele>
        <time>2016-09-15T10:00:43Z</time>
      </trkpt>
      <trkpt lat="44.38606" lon="1.51647">
        <ele>186.3</ele>
      </trkpt>
      <trkpt lat="44.3858" lon="1.51612">
        <ele>186.3</ele>
      </trkpt>
      <trkpt lat="44.38541" lon="1.51566">
        <ele>188.9</ele>
      </trkpt>
      <trkpt lat="44.38533" lon="1.5156">
        <ele>189.2</ele>
        <time>2019-03-30T15:06:05Z</time>
      </trkpt>
      <trkpt lat="44.38526" lon="1.51491">
        <ele>186.211</ele>
        <time>2019-03-30T15:06:25Z</time>
      </trkpt>
      <trkpt lat="44.38521" lon="1.51441">
        <ele>191.6</ele>
      </trkpt>
      <trkpt lat="44.3853" lon="1.51423">
        <ele>192.2</ele>
      </trkpt>
      <trkpt lat="44.38533" lon="1.51406">
        <ele>195.3</ele>
      </trkpt>
      <trkpt lat="44.38529" lon="1.51364">
        <ele>202.6</ele>
        <time>2019-03-30T15:06:45Z</time>
      </trkpt>
      <trkpt lat="44.38515" lon="1.51349">
        <ele>199.1</ele>
      </trkpt>
      <trkpt lat="44.38457" lon="1.51322">
        <ele>195.2</ele>
      </trkpt>
      <trkpt lat="44.38392" lon="1.51288">
        <ele>197.7</ele>
      </trkpt>
      <trkpt lat="44.3837" lon="1.51254">
        <ele>200</ele>
        <time>2019-03-30T15:07:05Z</time>
      </trkpt>
      <trkpt lat="44.38349" lon="1.51229">
        <ele>197.8</ele>
      </trkpt>
      <trkpt lat="44.38319" lon="1.51177">
        <ele>197.8</ele>
      </trkpt>
      <trkpt lat="44.38316" lon="1.51155">
        <ele>200.575</ele>
        <time>2019-03-30T15:07:25Z</time>
      </trkpt>
      <trkpt lat="44.38354" lon="1.5101">
        <ele>210.914</ele>
        <time>2019-03-30T15:07:45Z</time>
      </trkpt>
      <trkpt lat="44.38418" lon="1.50911">
        <ele>214.393</ele>
        <time>2019-03-30T15:08:05Z</time>
      </trkpt>
      <trkpt lat="44.38562" lon="1.50613">
        <ele>230.9</ele>
        <time>2019-03-30T15:08:25Z</time>
      </trkpt>
      <trkpt lat="44.38645" lon="1.50495">
        <ele>239.64</ele>
        <time>2016-09-15T10:05:03Z</time>
      </trkpt>
      <trkpt lat="44.38723" lon="1.50248">
        <ele>254.193</ele>
        <time>2016-09-15T10:05:23Z</time>
      </trkpt>
      <trkpt lat="44.38889" lon="1.50385">
        <ele>255.172</ele>
        <time>2016-09-15T10:05:43Z</time>
      </trkpt>
      <trkpt lat="44.38958" lon="1.50471">
        <ele>258.094</ele>
        <time>2016-09-15T10:06:03Z</time>
      </trkpt>
      <trkpt lat="44.39125" lon="1.50574">
        <ele>258.257</ele>
        <time>2016-09-15T10:06:23Z</time>
      </trkpt>
      <trkpt lat="44.39222" lon="1.50518">
        <ele>251.422</ele>
        <time>2016-09-15T10:06:43Z</time>
      </trkpt>
      <trkpt lat="44.39266" lon="1.50465">
        <ele>246.408</ele>
        <time>2016-09-15T10:07:03Z</time>
      </trkpt>
      <trkpt lat="44.39427" lon="1.50439">
        <ele>231.955</ele>
        <time>2016-09-15T10:07:23Z</time>
      </trkpt>
      <trkpt lat="44.39507" lon="1.50394">
        <ele>230.872</ele>
        <time>2016-09-15T10:07:43Z</time>
      </trkpt>
      <trkpt lat="44.39527" lon="1.50366">
        <ele>234.481</ele>
        <time>2016-09-15T10:08:03Z</time>
      </trkpt>
      <trkpt lat="44.39533" lon="1.50276">
        <ele>246.42</ele>
        <time>2016-09-15T10:08:23Z</time>
      </trkpt>
      <trkpt lat="44.39623" lon="1.50053">
        <ele>273.346</ele>
        <time>2016-09-15T10:08:43Z</time>
      </trkpt>
      <trkpt lat="44.39678" lon="1.49978">
        <ele>277.9</ele>
      </trkpt>
      <trkpt lat="44.39749" lon="1.49924">
        <ele>278.057</ele>
        <time>2016-09-15T10:09:03Z</time>
      </trkpt>
      <trkpt lat="44.39976" lon="1.49683">
        <ele>271.67</ele>
        <time>2016-09-15T10:09:23Z</time>
      </trkpt>
      <trkpt lat="44.40135" lon="1.49379">
        <ele>262.349</ele>
        <time>2016-09-15T10:09:43Z</time>
      </trkpt>
      <trkpt lat="44.40339" lon="1.49201">
        <ele>244.9</ele>
      </trkpt>
      <trkpt lat="44.40546" lon="1.49005">
        <ele>216.258</ele>
        <time>2016-09-15T10:10:03Z</time>
      </trkpt>
      <trkpt lat="44.4064" lon="1.48958">
        <ele>195.9</ele>
        <time>2016-09-15T10:10:23Z</time>
      </trkpt>
      <trkpt lat="44.40716" lon="1.48957">
        <ele>193.6</ele>
      </trkpt>
      <trkpt lat="44.40794" lon="1.48975">
        <ele>191.2</ele>
        <time>2016-09-15T10:10:43Z</time>
      </trkpt>
      <trkpt lat="44.4084" lon="1.49031">
        <ele>190.6</ele>
      </trkpt>
      <trkpt lat="44.40879" lon="1.49097">
        <ele>189</ele>
        <time>2016-09-15T10:11:03Z</time>
      </trkpt>
      <trkpt lat="44.40892" lon="1.49109">
        <ele>188.2</ele>
      </trkpt>
      <trkpt lat="44.40909" lon="1.4911">
        <ele>188.1</ele>
      </trkpt>
      <trkpt lat="44.40934" lon="1.49091">
        <ele>190.1</ele>
        <time>2016-09-15T10:11:23Z</time>
      </trkpt>
      <trkpt lat="44.40954" lon="1.49061">
        <ele>196.658</ele>
        <time>2016-09-15T10:11:43Z</time>
      </trkpt>
      <trkpt lat="44.40952" lon="1.48941">
        <ele>202.047</ele>
        <time>2016-09-15T10:12:03Z</time>
      </trkpt>
      <trkpt lat="44.40893" lon="1.48761">
        <ele>204.046</ele>
        <time>2016-09-15T10:12:23Z</time>
      </trkpt>
      <trkpt lat="44.4084" lon="1.48657">
        <ele>198.5</ele>
        <time>2016-09-15T10:12:43Z</time>
      </trkpt>
      <trkpt lat="44.40839" lon="1.48589">
        <ele>206.433</ele>
        <time>2016-09-15T10:13:03Z</time>
      </trkpt>
      <trkpt lat="44.40868" lon="1.48456">
        <ele>206.376</ele>
        <time>2016-09-15T10:13:23Z</time>
      </trkpt>
      <trkpt lat="44.40863" lon="1.48196">
        <ele>213.515</ele>
        <time>2016-09-15T10:13:43Z</time>
      </trkpt>
      <trkpt lat="44.40851" lon="1.48063">
        <ele>217.416</ele>
        <time>2016-09-15T10:14:03Z</time>
      </trkpt>
      <trkpt lat="44.40808" lon="1.4796">
        <ele>215.076</ele>
        <time>2016-09-15T10:14:23Z</time>
      </trkpt>
      <trkpt lat="44.40792" lon="1.47883">
        <ele>211.7</ele>
        <time>2016-09-15T10:14:43Z</time>
      </trkpt>
      <trkpt lat="44.40735" lon="1.47845">
        <ele>217.908</ele>
        <time>2016-09-15T10:15:03Z</time>
      </trkpt>
      <trkpt lat="44.4069" lon="1.47784">
        <ele>218.537</ele>
        <time>2016-09-15T10:15:23Z</time>
      </trkpt>
      <trkpt lat="44.4063" lon="1.47718">
        <ele>224.324</ele>
        <time>2016-09-15T10:15:43Z</time>
      </trkpt>
      <trkpt lat="44.40609" lon="1.47668">
        <ele>218.3</ele>
      </trkpt>
      <trkpt lat="44.4059" lon="1.47613">
        <ele>219.5</ele>
        <time>2016-09-15T10:16:03Z</time>
      </trkpt>
      <trkpt lat="44.406" lon="1.47525">
        <ele>223</ele>
        <time>2016-09-15T10:16:23Z</time>
      </trkpt>
      <trkpt lat="44.40595" lon="1.47512">
        <ele>222.6</ele>
      </trkpt>
      <trkpt lat="44.40588" lon="1.47471">
        <ele>228.238</ele>
        <time>2016-09-15T10:16:43Z</time>
      </trkpt>
      <trkpt lat="44.4063" lon="1.47394">
        <ele>230.2</ele>
      </trkpt>
      <trkpt lat="44.40659" lon="1.47323">
        <ele>233.5</ele>
      </trkpt>
      <trkpt lat="44.40701" lon="1.47252">
        <ele>242.412</ele>
        <time>2016-09-15T10:17:23Z</time>
      </trkpt>
      <trkpt lat="44.40704" lon="1.4722">
        <ele>244.621</ele>
        <time>2016-09-15T10:17:43Z</time>
      </trkpt>
      <trkpt lat="44.40778" lon="1.47134">
        <ele>248.418</ele>
        <time>2016-09-15T10:18:03Z</time>
      </trkpt>
      <trkpt lat="44.40735" lon="1.47044">
        <ele>259.498</ele>
        <time>2016-09-15T10:18:23Z</time>
      </trkpt>
      <trkpt lat="44.40749" lon="1.46964">
        <ele>265.217</ele>
        <time>2016-09-15T10:18:43Z</time>
      </trkpt>
      <trkpt lat="44.40804" lon="1.46853">
        <ele>270.308</ele>
        <time>2016-09-15T10:19:03Z</time>
      </trkpt>
      <trkpt lat="44.40842" lon="1.46853">
        <ele>271.747</ele>
        <time>2016-09-15T10:19:23Z</time>
      </trkpt>
      <trkpt lat="44.40913" lon="1.46911">
        <ele>272.434</ele>
        <time>2016-09-15T10:19:43Z</time>
      </trkpt>
      <trkpt lat="44.40978" lon="1.46872">
        <ele>277.3</ele>
        <time>2016-09-15T10:20:03Z</time>
      </trkpt>
      <trkpt lat="44.41085" lon="1.46859">
        <ele>284.082</ele>
        <time>2016-09-15T10:20:23Z</time>
      </trkpt>
      <trkpt lat="44.41283" lon="1.46791">
        <ele>275.6</ele>
        <time>2016-09-15T10:20:43Z</time>
      </trkpt>
      <trkpt lat="44.41393" lon="1.46621">
        <ele>271.089</ele>
        <time>2016-09-15T10:21:03Z</time>
      </trkpt>
      <trkpt lat="44.41484" lon="1.46491">
        <ele>267.6</ele>
        <time>2016-09-15T10:21:23Z</time>
      </trkpt>
      <trkpt lat="44.41506" lon="1.46435">
        <ele>268.2</ele>
      </trkpt>
      <trkpt lat="44.41529" lon="1.46394">
        <ele>269.8</ele>
      </trkpt>
      <trkpt lat="44.41535" lon="1.46354">
        <ele>270.5</ele>
        <time>2016-09-15T10:21:43Z</time>
      </trkpt>
      <trkpt lat="44.4159" lon="1.46245">
        <ele>274.3</ele>
        <time>2016-09-15T10:22:03Z</time>
      </trkpt>
      <trkpt lat="44.41682" lon="1.46158">
        <ele>275.461</ele>
        <time>2016-09-15T10:22:23Z</time>
      </trkpt>
      <trkpt lat="44.41711" lon="1.46055">
        <ele>265.707</ele>
        <time>2016-09-15T10:22:43Z</time>
      </trkpt>
      <trkpt lat="44.41727" lon="1.45928">
        <ele>260.608</ele>
        <time>2016-09-15T10:23:03Z</time>
      </trkpt>
      <trkpt lat="44.41777" lon="1.4569">
        <ele>256.089</ele>
        <time>2016-09-15T10:23:23Z</time>
      </trkpt>
      <trkpt lat="44.41777" lon="1.4569">
        <ele>256.089</ele>
        <time>2016-09-15T10:23:23Z</time>
      </trkpt>
      <trkpt lat="44.41975" lon="1.45572">
        <ele>252.736</ele>
        <time>2016-09-15T10:23:43Z</time>
      </trkpt>
      <trkpt lat="44.42044" lon="1.45482">
        <ele>255.275</ele>
        <time>2016-09-15T10:24:03Z</time>
      </trkpt>
      <trkpt lat="44.4207" lon="1.4548">
        <ele>256.414</ele>
        <time>2016-09-15T10:24:23Z</time>
      </trkpt>
      <trkpt lat="44.42124" lon="1.45452">
        <ele>258.82</ele>
        <time>2016-09-15T10:24:43Z</time>
      </trkpt>
      <trkpt lat="44.42177" lon="1.45465">
        <ele>256.661</ele>
        <time>2016-09-15T10:25:03Z</time>
      </trkpt>
      <trkpt lat="44.42221" lon="1.45443">
        <ele>254.1</ele>
      </trkpt>
      <trkpt lat="44.42245" lon="1.45434">
        <ele>251.5</ele>
      </trkpt>
      <trkpt lat="44.42266" lon="1.45432">
        <ele>249.834</ele>
        <time>2016-09-15T10:25:23Z</time>
      </trkpt>
      <trkpt lat="44.42334" lon="1.45441">
        <ele>254.023</ele>
        <time>2016-09-15T10:25:43Z</time>
      </trkpt>
      <trkpt lat="44.4239" lon="1.45467">
        <ele>256.2</ele>
        <time>2016-09-15T10:26:03Z</time>
      </trkpt>
      <trkpt lat="44.42451" lon="1.45458">
        <ele>254.8</ele>
      </trkpt>
      <trkpt lat="44.42502" lon="1.45457">
        <ele>252.4</ele>
        <time>2016-09-15T10:26:23Z</time>
      </trkpt>
      <trkpt lat="44.4253" lon="1.45473">
        <ele>252</ele>
      </trkpt>
      <trkpt lat="44.42551" lon="1.45471">
        <ele>252</ele>
      </trkpt>
      <trkpt lat="44.42582" lon="1.45484">
        <ele>251.026</ele>
        <time>2016-09-15T10:26:43Z</time>
      </trkpt>
      <trkpt lat="44.42697" lon="1.4549">
        <ele>257.908</ele>
        <time>2016-09-15T10:27:03Z</time>
      </trkpt>
      <trkpt lat="44.42747" lon="1.45434">
        <ele>262.483</ele>
        <time>2016-09-15T10:27:23Z</time>
      </trkpt>
      <trkpt lat="44.42875" lon="1.45398">
        <ele>255.21</ele>
        <time>2016-09-15T10:27:43Z</time>
      </trkpt>
      <trkpt lat="44.42968" lon="1.4534">
        <ele>252.559</ele>
        <time>2016-09-15T10:28:03Z</time>
      </trkpt>
      <trkpt lat="44.43031" lon="1.45274">
        <ele>251.658</ele>
        <time>2016-09-15T10:28:23Z</time>
      </trkpt>
      <trkpt lat="44.43071" lon="1.45203">
        <ele>247.884</ele>
        <time>2016-09-15T10:28:43Z</time>
      </trkpt>
      <trkpt lat="44.43285" lon="1.44975">
        <ele>246.425</ele>
        <time>2016-09-15T10:29:03Z</time>
      </trkpt>
      <trkpt lat="44.43333" lon="1.44877">
        <ele>244.648</ele>
        <time>2016-09-15T10:29:23Z</time>
      </trkpt>
      <trkpt lat="44.43448" lon="1.44752">
        <ele>224.747</ele>
        <time>2016-09-15T10:29:43Z</time>
      </trkpt>
      <trkpt lat="44.4357" lon="1.44675">
        <ele>211.615</ele>
        <time>2016-09-15T10:30:03Z</time>
      </trkpt>
      <trkpt lat="44.43665" lon="1.44578">
        <ele>193.165</ele>
        <time>2016-09-15T10:30:23Z</time>
      </trkpt>
      <trkpt lat="44.43736" lon="1.44473">
        <ele>170.211</ele>
        <time>2016-09-15T10:30:43Z</time>
      </trkpt>
      <trkpt lat="44.43756" lon="1.44426">
        <ele>161.908</ele>
        <time>2016-09-15T10:31:03Z</time>
      </trkpt>
      <trkpt lat="44.43815" lon="1.44329">
        <ele>149.297</ele>
        <time>2016-09-15T10:31:23Z</time>
      </trkpt>
      <trkpt lat="44.4384" lon="1.44347">
        <ele>144.514</ele>
        <time>2016-09-15T10:31:43Z</time>
      </trkpt>
      <trkpt lat="44.43834" lon="1.44383">
        <ele>143.553</ele>
        <time>2016-09-15T10:32:03Z</time>
      </trkpt>
      <trkpt lat="44.43813" lon="1.44439">
        <ele>142.542</ele>
        <time>2019-03-30T15:36:05Z</time>
      </trkpt>
      <trkpt lat="44.43826" lon="1.44451">
        <ele>135.328</ele>
        <time>2019-03-30T15:36:25Z</time>
      </trkpt>
      <trkpt lat="44.43885" lon="1.44348">
        <ele>130.269</ele>
        <time>2019-03-30T15:36:45Z</time>
      </trkpt>
      <trkpt lat="44.43933" lon="1.444">
        <ele>128.182</ele>
        <time>2019-03-30T15:37:05Z</time>
      </trkpt>
      <trkpt lat="44.43954" lon="1.44299">
        <ele>124.881</ele>
        <time>2019-03-30T15:37:25Z</time>
      </trkpt>
      <trkpt lat="44.4397" lon="1.44224">
        <ele>120.255</ele>
        <time>2019-03-30T15:37:45Z</time>
      </trkpt>
      <trkpt lat="44.4401" lon="1.44183">
        <ele>117.907</ele>
        <time>2019-03-30T15:38:05Z</time>
      </trkpt>
      <trkpt lat="44.44072" lon="1.44297">
        <ele>121.617</ele>
        <time>2019-03-30T15:38:25Z</time>
      </trkpt>
      <trkpt lat="44.44292" lon="1.44219">
        <ele>123.508</ele>
        <time>2019-03-30T15:38:45Z</time>
      </trkpt>
      <trkpt lat="44.44292" lon="1.4421">
        <ele>119.5</ele>
      </trkpt>
      <trkpt lat="44.44295" lon="1.44211">
        <ele>119.5</ele>
      </trkpt>
      <trkpt lat="44.44298" lon="1.44214">
        <ele>119.4</ele>
      </trkpt>
      <trkpt lat="44.44301" lon="1.44221">
        <ele>119.2</ele>
      </trkpt>
      <trkpt lat="44.44362" lon="1.44202">
        <ele>120</ele>
      </trkpt>
      <trkpt lat="44.44394" lon="1.44189">
        <ele>120.2</ele>
      </trkpt>
      <trkpt lat="44.44457" lon="1.44169">
        <ele>121.5</ele>
        <extensions>
          <visugpx:TrkExtension xmlns:visugpx="https://www.visugpx.com/editgpx/">
            <visugpx:node>1</visugpx:node>
            </visugpx:TrkExtension>
        </extensions>
      </trkpt>
      <trkpt lat="44.44443" lon="1.44128">
        <ele>120.9</ele>
        <extensions>
          <visugpx:TrkExtension xmlns:visugpx="https://www.visugpx.com/editgpx/">
            <visugpx:node>2</visugpx:node>
            </visugpx:TrkExtension>
        </extensions>
      </trkpt>
      <trkpt lat="44.4444" lon="1.44105">
        <ele>120.9</ele>
      </trkpt>
      <trkpt lat="44.44475" lon="1.44045">
        <ele>121.6</ele>
      </trkpt>
      <trkpt lat="44.44472" lon="1.44007">
        <ele>122.7</ele>
        <extensions>
          <visugpx:TrkExtension xmlns:visugpx="https://www.visugpx.com/editgpx/">
            <visugpx:node>3</visugpx:node>
            </visugpx:TrkExtension>
        </extensions>
      </trkpt>
      <trkpt lat="44.44475" lon="1.43976">
        <ele>123.9</ele>
      </trkpt>
      <trkpt lat="44.44468" lon="1.43945">
        <ele>124</ele>
      </trkpt>
      <trkpt lat="44.44465" lon="1.43843">
        <ele>124.8</ele>
      </trkpt>
      <trkpt lat="44.44451" lon="1.43787">
        <ele>124.3</ele>
      </trkpt>
      <trkpt lat="44.44482" lon="1.43768">
        <ele>125.1</ele>
      </trkpt>
      <trkpt lat="44.44497" lon="1.43766">
        <ele>125.4</ele>
      </trkpt>
      <trkpt lat="44.44571" lon="1.43753">
        <ele>126</ele>
      </trkpt>
      <trkpt lat="44.44566" lon="1.43686">
        <ele>125.2</ele>
      </trkpt>
      <trkpt lat="44.44548" lon="1.43504">
        <ele>121.7</ele>
      </trkpt>
      <trkpt lat="44.44541" lon="1.43401">
        <ele>120.5</ele>
      </trkpt>
      <trkpt lat="44.44539" lon="1.43392">
        <ele>120.6</ele>
      </trkpt>
      <trkpt lat="44.44536" lon="1.43385">
        <ele>120.6</ele>
      </trkpt>
      <trkpt lat="44.44541" lon="1.43368">
        <ele>120.1</ele>
      </trkpt>
      <trkpt lat="44.44541" lon="1.43343">
        <ele>120.4</ele>
      </trkpt>
      <trkpt lat="44.44534" lon="1.43316">
        <ele>120.1</ele>
      </trkpt>
      <trkpt lat="44.4453" lon="1.43285">
        <ele>119.1</ele>
        <extensions>
          <visugpx:TrkExtension xmlns:visugpx="https://www.visugpx.com/editgpx/">
            <visugpx:node>4</visugpx:node>
            </visugpx:TrkExtension>
        </extensions>
      </trkpt>
      <trkpt lat="44.44505" lon="1.43167">
        <ele>113</ele>
        <extensions>
          <visugpx:TrkExtension xmlns:visugpx="https://www.visugpx.com/editgpx/">
            <visugpx:node>5</visugpx:node>
            </visugpx:TrkExtension>
        </extensions>
      </trkpt>
      <trkpt lat="44.44478" lon="1.43055">
        <ele>135.241</ele>
        <time>2019-03-30T15:42:05Z</time>
      </trkpt>
      <trkpt lat="44.44437" lon="1.43061">
        <ele>141.3</ele>
        <time>2019-03-30T15:42:25Z</time>
      </trkpt>
      <trkpt lat="44.44463" lon="1.43014">
        <ele>159.4</ele>
        <time>2019-03-30T15:42:45Z</time>
      </trkpt>
      <trkpt lat="44.44448" lon="1.43001">
        <ele>167.4</ele>
        <time>2019-03-30T15:43:05Z</time>
      </trkpt>
      <trkpt lat="44.44433" lon="1.43007">
        <ele>169.9</ele>
        <time>2019-03-30T15:43:25Z</time>
      </trkpt>
      <trkpt lat="44.44366" lon="1.43019">
        <ele>178.219</ele>
        <time>2019-03-30T15:43:45Z</time>
      </trkpt>
      <trkpt lat="44.44336" lon="1.43052">
        <ele>189.4</ele>
      </trkpt>
      <trkpt lat="44.44288" lon="1.43084">
        <ele>199.3</ele>
        <time>2019-03-30T15:44:05Z</time>
      </trkpt>
      <trkpt lat="44.44176" lon="1.43076">
        <ele>214.854</ele>
        <time>2019-03-30T15:44:25Z</time>
      </trkpt>
      <trkpt lat="44.44115" lon="1.43106">
        <ele>223.175</ele>
        <time>2019-03-30T15:44:45Z</time>
      </trkpt>
      <trkpt lat="44.44001" lon="1.43106">
        <ele>219.9</ele>
        <time>2019-03-30T15:45:05Z</time>
      </trkpt>
      <trkpt lat="44.43967" lon="1.43119">
        <ele>219.3</ele>
      </trkpt>
      <trkpt lat="44.43938" lon="1.43146">
        <ele>221.1</ele>
      </trkpt>
      <trkpt lat="44.43892" lon="1.4317">
        <ele>219.687</ele>
        <time>2019-03-30T15:45:25Z</time>
      </trkpt>
      <trkpt lat="44.43877" lon="1.43207">
        <ele>223.714</ele>
        <time>2019-03-30T15:45:45Z</time>
      </trkpt>
      <trkpt lat="44.43817" lon="1.43294">
        <ele>236.1</ele>
      </trkpt>
      <trkpt lat="44.4379" lon="1.43268">
        <ele>238.2</ele>
        <time>2019-03-30T15:46:05Z</time>
      </trkpt>
      <trkpt lat="44.43749" lon="1.43138">
        <ele>231.909</ele>
        <time>2019-03-30T15:46:25Z</time>
      </trkpt>
      <trkpt lat="44.43743" lon="1.43115">
        <ele>230.7</ele>
        <time>2016-09-15T10:36:03Z</time>
      </trkpt>
      <trkpt lat="44.43742" lon="1.43007">
        <ele>223.547</ele>
        <time>2016-09-15T10:36:23Z</time>
      </trkpt>
      <trkpt lat="44.43763" lon="1.4285">
        <ele>219.834</ele>
        <time>2016-09-15T10:36:43Z</time>
      </trkpt>
      <trkpt lat="44.43789" lon="1.42747">
        <ele>219.973</ele>
        <time>2016-09-15T10:37:03Z</time>
      </trkpt>
      <trkpt lat="44.43708" lon="1.42663">
        <ele>213.372</ele>
        <time>2016-09-15T10:37:23Z</time>
      </trkpt>
      <trkpt lat="44.43682" lon="1.42687">
        <ele>213.438</ele>
        <time>2016-09-15T10:37:43Z</time>
      </trkpt>
      <trkpt lat="44.43657" lon="1.42713">
        <ele>211.1</ele>
        <time>2016-09-15T10:38:03Z</time>
      </trkpt>
      <trkpt lat="44.43586" lon="1.42706">
        <ele>207.052</ele>
        <time>2016-09-15T10:38:23Z</time>
      </trkpt>
      <trkpt lat="44.43538" lon="1.42657">
        <ele>205.291</ele>
        <time>2016-09-15T10:38:43Z</time>
      </trkpt>
      <trkpt lat="44.43471" lon="1.42661">
        <ele>196</ele>
      </trkpt>
      <trkpt lat="44.43406" lon="1.42686">
        <ele>192.1</ele>
        <time>2016-09-15T10:39:03Z</time>
      </trkpt>
      <trkpt lat="44.43237" lon="1.42701">
        <ele>173.7</ele>
        <time>2016-09-15T10:39:23Z</time>
      </trkpt>
      <trkpt lat="44.43126" lon="1.4271">
        <ele>169.519</ele>
        <time>2016-09-15T10:39:43Z</time>
      </trkpt>
      <trkpt lat="44.4299" lon="1.42781">
        <ele>158.208</ele>
        <time>2016-09-15T10:40:03Z</time>
      </trkpt>
      <trkpt lat="44.42902" lon="1.42884">
        <ele>150.247</ele>
        <time>2016-09-15T10:40:23Z</time>
      </trkpt>
      <trkpt lat="44.4288" lon="1.42932">
        <ele>142.7</ele>
      </trkpt>
      <trkpt lat="44.42868" lon="1.42997">
        <ele>140.2</ele>
        <time>2016-09-15T10:40:43Z</time>
      </trkpt>
      <trkpt lat="44.42823" lon="1.4294">
        <ele>140.3</ele>
        <time>2019-03-30T15:52:25Z</time>
      </trkpt>
      <trkpt lat="44.42839" lon="1.42926">
        <ele>140.9</ele>
        <time>2019-03-30T15:52:45Z</time>
      </trkpt>
      <trkpt lat="44.42879" lon="1.42823">
        <ele>143.8</ele>
      </trkpt>
      <trkpt lat="44.42882" lon="1.42812">
        <ele>143.3</ele>
      </trkpt>
      <trkpt lat="44.42862" lon="1.42672">
        <ele>150.161</ele>
        <time>2016-09-15T10:42:23Z</time>
      </trkpt>
      <trkpt lat="44.42854" lon="1.42395">
        <ele>147.8</ele>
        <time>2016-09-15T10:42:43Z</time>
      </trkpt>
      <trkpt lat="44.42821" lon="1.42314">
        <ele>150.6</ele>
        <time>2016-09-15T10:43:03Z</time>
      </trkpt>
      <trkpt lat="44.42751" lon="1.42205">
        <ele>150.7</ele>
        <time>2016-09-15T10:43:23Z</time>
      </trkpt>
      <trkpt lat="44.42731" lon="1.42129">
        <ele>156.172</ele>
        <time>2016-09-15T10:44:03Z</time>
      </trkpt>
      <trkpt lat="44.42606" lon="1.41869">
        <ele>160.789</ele>
        <time>2016-09-15T10:44:23Z</time>
      </trkpt>
      <trkpt lat="44.42552" lon="1.41794">
        <ele>156.2</ele>
      </trkpt>
      <trkpt lat="44.4249" lon="1.41727">
        <ele>157.8</ele>
        <time>2016-09-15T10:44:43Z</time>
      </trkpt>
      <trkpt lat="44.42415" lon="1.41691">
        <ele>160.867</ele>
        <time>2016-09-15T10:45:03Z</time>
      </trkpt>
      <trkpt lat="44.42352" lon="1.41621">
        <ele>159.6</ele>
        <time>2016-09-15T10:45:23Z</time>
      </trkpt>
      <trkpt lat="44.42315" lon="1.41627">
        <ele>163.074</ele>
        <time>2019-03-30T15:56:45Z</time>
      </trkpt>
      <trkpt lat="44.42146" lon="1.41694">
        <ele>185.227</ele>
        <time>2019-03-30T15:57:05Z</time>
      </trkpt>
      <trkpt lat="44.42071" lon="1.41762">
        <ele>191.976</ele>
        <time>2019-03-30T15:57:25Z</time>
      </trkpt>
      <trkpt lat="44.41944" lon="1.41913">
        <ele>212.829</ele>
        <time>2019-03-30T15:57:45Z</time>
      </trkpt>
      <trkpt lat="44.41721" lon="1.41857">
        <ele>220</ele>
        <time>2019-03-30T15:58:05Z</time>
      </trkpt>
      <trkpt lat="44.41759" lon="1.41931">
        <ele>219.02</ele>
        <time>2021-01-03T06:00:40Z</time>
      </trkpt>
      <trkpt lat="44.41774" lon="1.42041">
        <ele>219.108</ele>
        <time>2021-01-03T06:01:00Z</time>
      </trkpt>
      <trkpt lat="44.41792" lon="1.42069">
        <ele>221.758</ele>
        <time>2021-01-03T06:01:20Z</time>
      </trkpt>
      <trkpt lat="44.41784" lon="1.42165">
        <ele>222.635</ele>
        <time>2021-01-03T06:01:40Z</time>
      </trkpt>
      <trkpt lat="44.41766" lon="1.42266">
        <ele>224.334</ele>
        <time>2021-01-03T06:02:00Z</time>
      </trkpt>
      <trkpt lat="44.41775" lon="1.42335">
        <ele>227.773</ele>
        <time>2021-01-03T06:02:20Z</time>
      </trkpt>
      <trkpt lat="44.41726" lon="1.42584">
        <ele>222.269</ele>
        <time>2021-01-03T06:02:40Z</time>
      </trkpt>
      <trkpt lat="44.41699" lon="1.42804">
        <ele>213.7</ele>
      </trkpt>
      <trkpt lat="44.41699" lon="1.42808">
        <ele>213.2</ele>
        <time>2021-01-03T06:03:00Z</time>
      </trkpt>
      <trkpt lat="44.41698" lon="1.4281">
        <ele>212.7</ele>
      </trkpt>
      <trkpt lat="44.41676" lon="1.42848">
        <ele>203.7</ele>
      </trkpt>
      <trkpt lat="44.41656" lon="1.42894">
        <ele>195.8</ele>
        <time>2021-01-03T06:03:20Z</time>
      </trkpt>
      <trkpt lat="44.41661" lon="1.42956">
        <ele>193.7</ele>
        <time>2021-01-03T06:03:40Z</time>
      </trkpt>
      <trkpt lat="44.41621" lon="1.42923">
        <ele>188.8</ele>
      </trkpt>
      <trkpt lat="44.41598" lon="1.42908">
        <ele>190.541</ele>
        <time>2021-01-03T06:04:00Z</time>
      </trkpt>
      <trkpt lat="44.41518" lon="1.4289">
        <ele>181.281</ele>
        <time>2021-01-03T06:04:20Z</time>
      </trkpt>
      <trkpt lat="44.41418" lon="1.42817">
        <ele>159.6</ele>
      </trkpt>
      <trkpt lat="44.41387" lon="1.4278">
        <ele>158.1</ele>
        <time>2021-01-03T06:04:40Z</time>
      </trkpt>
      <trkpt lat="44.41339" lon="1.42878">
        <ele>154.908</ele>
        <time>2021-01-03T06:05:00Z</time>
      </trkpt>
      <trkpt lat="44.41291" lon="1.42892">
        <ele>151.73</ele>
        <time>2021-01-03T06:05:20Z</time>
      </trkpt>
      <trkpt lat="44.41256" lon="1.42798">
        <ele>152.737</ele>
        <time>2021-01-03T06:05:40Z</time>
      </trkpt>
      <trkpt lat="44.41227" lon="1.42704">
        <ele>148.9</ele>
        <time>2021-01-03T06:06:00Z</time>
      </trkpt>
      <trkpt lat="44.41194" lon="1.42664">
        <ele>151.125</ele>
        <time>2021-01-03T06:06:20Z</time>
      </trkpt>
      <trkpt lat="44.41155" lon="1.42644">
        <ele>151.831</ele>
        <time>2021-01-03T06:06:40Z</time>
      </trkpt>
      <trkpt lat="44.41131" lon="1.42631">
        <ele>151.9</ele>
      </trkpt>
      <trkpt lat="44.41139" lon="1.42607">
        <ele>152.3</ele>
      </trkpt>
      <trkpt lat="44.41134" lon="1.42582">
        <ele>153.6</ele>
      </trkpt>
      <trkpt lat="44.41073" lon="1.42471">
        <ele>172.6</ele>
        <time>2021-01-03T06:07:00Z</time>
      </trkpt>
      <trkpt lat="44.41014" lon="1.42392">
        <ele>188.4</ele>
      </trkpt>
      <trkpt lat="44.40946" lon="1.42294">
        <ele>206.185</ele>
        <time>2021-01-03T06:07:20Z</time>
      </trkpt>
      <trkpt lat="44.4091" lon="1.42216">
        <ele>212.8</ele>
      </trkpt>
      <trkpt lat="44.40882" lon="1.42126">
        <ele>218.524</ele>
        <time>2021-01-03T06:07:40Z</time>
      </trkpt>
      <trkpt lat="44.40802" lon="1.4196">
        <ele>221.2</ele>
      </trkpt>
      <trkpt lat="44.40726" lon="1.41779">
        <ele>235.764</ele>
        <time>2021-01-03T06:08:00Z</time>
      </trkpt>
      <trkpt lat="44.40669" lon="1.41699">
        <ele>239.4</ele>
      </trkpt>
      <trkpt lat="44.40607" lon="1.41652">
        <ele>246.706</ele>
        <time>2021-01-03T06:08:20Z</time>
      </trkpt>
      <trkpt lat="44.4058" lon="1.41573">
        <ele>250</ele>
      </trkpt>
      <trkpt lat="44.40577" lon="1.4154">
        <ele>250.2</ele>
      </trkpt>
      <trkpt lat="44.4056" lon="1.41516">
        <ele>250.8</ele>
      </trkpt>
      <trkpt lat="44.4055" lon="1.41457">
        <ele>250.216</ele>
        <time>2021-01-03T06:08:40Z</time>
      </trkpt>
      <trkpt lat="44.40508" lon="1.41416">
        <ele>247.6</ele>
      </trkpt>
      <trkpt lat="44.40474" lon="1.41356">
        <ele>238.108</ele>
        <time>2021-01-03T06:09:00Z</time>
      </trkpt>
      <trkpt lat="44.40425" lon="1.41176">
        <ele>247.9</ele>
        <time>2021-01-03T06:09:20Z</time>
      </trkpt>
      <trkpt lat="44.40421" lon="1.41164">
        <ele>248.9</ele>
      </trkpt>
      <trkpt lat="44.40384" lon="1.41101">
        <ele>253.3</ele>
      </trkpt>
      <trkpt lat="44.40336" lon="1.41043">
        <ele>258.7</ele>
        <time>2021-01-03T06:09:40Z</time>
      </trkpt>
      <trkpt lat="44.40218" lon="1.40983">
        <ele>268.958</ele>
        <time>2021-01-03T06:10:00Z</time>
      </trkpt>
      <trkpt lat="44.40091" lon="1.40891">
        <ele>276.8</ele>
        <time>2021-01-03T06:10:20Z</time>
      </trkpt>
      <trkpt lat="44.39954" lon="1.40838">
        <ele>275.733</ele>
        <time>2021-01-03T06:10:40Z</time>
      </trkpt>
      <trkpt lat="44.3987" lon="1.40781">
        <ele>265.514</ele>
        <time>2021-01-03T06:11:00Z</time>
      </trkpt>
      <trkpt lat="44.39687" lon="1.40712">
        <ele>258.517</ele>
        <time>2021-01-03T06:11:20Z</time>
      </trkpt>
      <trkpt lat="44.39612" lon="1.40657">
        <ele>265.1</ele>
      </trkpt>
      <trkpt lat="44.39431" lon="1.40572">
        <ele>280.176</ele>
        <time>2021-01-03T06:11:40Z</time>
      </trkpt>
      <trkpt lat="44.3936" lon="1.40498">
        <ele>289.345</ele>
        <time>2021-01-03T06:12:00Z</time>
      </trkpt>
      <trkpt lat="44.39247" lon="1.40447">
        <ele>296.947</ele>
        <time>2021-01-03T06:12:20Z</time>
      </trkpt>
      <trkpt lat="44.39207" lon="1.40406">
        <ele>298.811</ele>
        <time>2021-01-03T06:12:40Z</time>
      </trkpt>
      <trkpt lat="44.39118" lon="1.40385">
        <ele>299.408</ele>
        <time>2019-03-30T16:19:25Z</time>
      </trkpt>
      <trkpt lat="44.39" lon="1.40277">
        <ele>287.06</ele>
        <time>2020-04-12T22:42:56Z</time>
      </trkpt>
      <trkpt lat="44.38979" lon="1.40269">
        <ele>286.267</ele>
        <time>2019-03-30T16:19:45Z</time>
      </trkpt>
      <trkpt lat="44.38934" lon="1.40216">
        <ele>289.876</ele>
        <time>2020-04-12T22:43:36Z</time>
      </trkpt>
      <trkpt lat="44.38905" lon="1.4017">
        <ele>295.335</ele>
        <time>2020-04-12T22:43:56Z</time>
      </trkpt>
      <trkpt lat="44.38854" lon="1.40017">
        <ele>304.461</ele>
        <time>2019-03-30T13:43:08Z</time>
      </trkpt>
      <trkpt lat="44.38816" lon="1.39928">
        <ele>303.585</ele>
        <time>2019-03-30T13:43:28Z</time>
      </trkpt>
      <trkpt lat="44.38655" lon="1.39819">
        <ele>300.124</ele>
        <time>2016-09-26T15:26:26Z</time>
      </trkpt>
      <trkpt lat="44.38468" lon="1.39399">
        <ele>293.166</ele>
        <time>2016-09-26T15:26:46Z</time>
      </trkpt>
      <trkpt lat="44.38183" lon="1.39343">
        <ele>293.029</ele>
        <time>2016-09-26T15:27:06Z</time>
      </trkpt>
      <trkpt lat="44.38015" lon="1.39235">
        <ele>287.121</ele>
        <time>2016-09-26T15:27:26Z</time>
      </trkpt>
      <trkpt lat="44.37965" lon="1.39231">
        <ele>285.408</ele>
        <time>2016-09-26T15:27:46Z</time>
      </trkpt>
      <trkpt lat="44.37925" lon="1.39214">
        <ele>284.472</ele>
        <time>2016-09-26T15:28:06Z</time>
      </trkpt>
      <trkpt lat="44.37886" lon="1.39205">
        <ele>284.2</ele>
      </trkpt>
      <trkpt lat="44.37735" lon="1.39246">
        <ele>287.059</ele>
        <time>2016-09-26T15:28:26Z</time>
      </trkpt>
      <trkpt lat="44.37596" lon="1.39227">
        <ele>277.1</ele>
        <time>2016-09-26T15:28:46Z</time>
      </trkpt>
      <trkpt lat="44.37533" lon="1.39212">
        <ele>273</ele>
      </trkpt>
      <trkpt lat="44.37511" lon="1.39186">
        <ele>270.257</ele>
        <time>2016-09-26T15:29:06Z</time>
      </trkpt>
      <trkpt lat="44.37492" lon="1.39182">
        <ele>266.9</ele>
      </trkpt>
      <trkpt lat="44.37457" lon="1.39202">
        <ele>262.9</ele>
      </trkpt>
      <trkpt lat="44.37408" lon="1.39235">
        <ele>259.843</ele>
        <time>2016-09-26T15:29:26Z</time>
      </trkpt>
      <trkpt lat="44.37346" lon="1.3924">
        <ele>258.574</ele>
        <time>2019-03-30T13:47:08Z</time>
      </trkpt>
      <trkpt lat="44.37292" lon="1.39202">
        <ele>256.3</ele>
      </trkpt>
      <trkpt lat="44.37238" lon="1.39173">
        <ele>256.977</ele>
        <time>2019-03-30T13:47:28Z</time>
      </trkpt>
      <trkpt lat="44.3721" lon="1.39165">
        <ele>257.8</ele>
      </trkpt>
      <trkpt lat="44.37162" lon="1.3917">
        <ele>264.1</ele>
        <time>2019-03-30T13:47:48Z</time>
      </trkpt>
      <trkpt lat="44.37085" lon="1.39085">
        <ele>270.9</ele>
      </trkpt>
      <trkpt lat="44.37006" lon="1.39028">
        <ele>273.839</ele>
        <time>2019-03-30T13:48:08Z</time>
      </trkpt>
      <trkpt lat="44.36921" lon="1.39021">
        <ele>273.4</ele>
      </trkpt>
      <trkpt lat="44.36839" lon="1.39024">
        <ele>268</ele>
        <time>2016-09-26T15:31:06Z</time>
      </trkpt>
      <trkpt lat="44.36765" lon="1.39017">
        <ele>270.7</ele>
        <extensions>
          <visugpx:TrkExtension xmlns:visugpx="https://www.visugpx.com/editgpx/">
            <visugpx:node>6</visugpx:node>
            </visugpx:TrkExtension>
        </extensions>
      </trkpt>
    </trkseg>
  </trk>
</gpx>